Time;durP1;ratioP1;P1;durP2;ratioP2;P2;SDS_P1;SDS_P2;PMS_P1;PMS_P2;Temp;Humidity;BMP_temperature;BMP_pressure;BME280_temperature;BME280_humidity;BME280_pressure;Samples;Min_cycle;Max_cycle;Signal;HPM_P1;HPM_P2
2022/09/23 00:00:11;;;;;;;;;;;;;;;8.78;68.58;97131.44;30001;982;1881;-62
2022/09/23 00:00:42;;;;;;;;;;;;;;;8.78;68.72;97134.13;30001;982;1876;-63
2022/09/23 00:01:16;;;;;;;;;;;;;;;8.74;68.65;97131.97;30001;982;1881;-64
2022/09/23 00:01:47;;;;;;;;;;;;;;;8.73;68.70;97133.06;30001;982;1876;-64
2022/09/23 00:02:19;;;;;;;;;;;;;;;8.70;68.71;97130.91;30001;982;1881;-62
2022/09/23 00:02:51;;;;;;;;;;;;;;;8.71;68.81;97129.81;30001;983;1862;-64
2022/09/23 00:03:22;;;;;;;;;;;;;;;8.72;68.81;97131.44;30001;983;1871;-64
2022/09/23 00:03:54;;;;;;;;;;;;;;;8.76;68.64;97128.19;30001;983;1876;-64
2022/09/23 00:04:24;;;;;;;;;;;;;;;8.77;68.50;97132.50;30001;983;1880;-63
2022/09/23 00:04:55;;;;;;;;;;;;;;;8.78;68.53;97131.44;30001;983;1876;-64
2022/09/23 00:05:26;;;;;;;;;;;;;;;8.77;68.59;97135.22;30001;983;1880;-65
2022/09/23 00:06:01;;;;;;;;;;;;;;;8.74;68.42;97131.97;30001;983;1876;-64
2022/09/23 00:06:32;;;;;;;;;;;;;;;8.74;68.62;97131.97;30001;983;1880;-65
2022/09/23 00:07:04;;;;;;;;;;;;;;;8.74;68.41;97137.38;30001;982;1876;-64
2022/09/23 00:07:35;;;;;;;;;;;;;;;8.76;68.68;97139.00;30001;982;1872;-64
2022/09/23 00:08:06;;;;;;;;;;;;;;;8.76;68.37;97139.00;30001;982;1859;-64
2022/09/23 00:08:38;;;;;;;;;;;;;;;8.73;68.49;97127.66;30001;982;1885;-65
2022/09/23 00:09:09;;;;;;;;;;;;;;;8.74;68.54;97131.97;30001;982;1880;-63
2022/09/23 00:09:40;;;;;;;;;;;;;;;8.73;68.41;97135.78;30001;982;1885;-65
2022/09/23 00:10:11;;;;;;;;;;;;;;;8.73;68.39;97135.78;30001;983;1880;-64
2022/09/23 00:10:44;;;;;;;;;;;;;;;8.76;68.50;97133.59;30001;983;1884;-63
2022/09/23 00:11:21;;;;;;;;;;;;;;;8.76;68.37;97136.31;30001;983;1880;-64
2022/09/23 00:11:52;;;;;;;;;;;;;;;8.78;68.53;97143.06;30001;983;1885;-63
2022/09/23 00:12:23;;;;;;;;;;;;;;;8.78;68.22;97136.84;30001;983;1880;-64
2022/09/23 00:12:54;;;;;;;;;;;;;;;8.76;68.47;97130.91;30001;983;1885;-63
2022/09/23 00:13:25;;;;;;;;;;;;;;;8.74;68.40;97134.69;30001;983;1867;-64
2022/09/23 00:13:58;;;;;;;;;;;;;;;8.76;68.46;97133.59;30001;973;1894;-63
2022/09/23 00:14:29;;;;;;;;;;;;;;;8.76;68.30;97130.91;30001;982;1880;-65
2022/09/23 00:14:59;;;;;;;;;;;;;;;8.77;68.37;97129.81;30001;982;1885;-63
2022/09/23 00:15:32;;;;;;;;;;;;;;;8.77;68.23;97129.81;30001;982;1867;-64
2022/09/23 00:16:05;;;;;;;;;;;;;;;8.76;68.29;97131.72;30001;982;1876;-63
2022/09/23 00:16:37;;;;;;;;;;;;;;;8.76;68.43;97133.59;30001;982;1880;-65
2022/09/23 00:17:08;;;;;;;;;;;;;;;8.74;68.47;97131.97;30001;982;1885;-66
2022/09/23 00:17:39;;;;;;;;;;;;;;;8.74;68.30;97131.97;30001;983;1880;-64
2022/09/23 00:18:10;;;;;;;;;;;;;;;8.76;68.50;97128.19;30001;983;1885;-65
2022/09/23 00:18:41;;;;;;;;;;;;;;;8.74;68.29;97131.97;30001;983;1880;-64
2022/09/23 00:19:13;;;;;;;;;;;;;;;8.73;68.50;97130.34;30001;983;1884;-63
2022/09/23 00:19:44;;;;;;;;;;;;;;;8.72;68.45;97134.16;30001;983;1879;-64
2022/09/23 00:20:16;;;;;;;;;;;;;;;8.70;68.55;97130.91;30001;983;1885;-65
2022/09/23 00:20:48;;;;;;;;;;;;;;;8.70;68.39;97125.50;30001;983;1867;-64
2022/09/23 00:21:20;;;;;;;;;;;;;;;8.71;68.53;97135.22;30001;983;1876;-65
2022/09/23 00:21:51;;;;;;;;;;;;;;;8.68;68.60;97133.06;30001;982;1867;-64
2022/09/23 00:22:22;;;;;;;;;;;;;;;8.67;68.83;97138.75;30001;982;1876;-65
2022/09/23 00:22:53;;;;;;;;;;;;;;;8.64;68.71;97136.63;30001;982;1881;-64
2022/09/23 00:23:24;;;;;;;;;;;;;;;8.64;68.84;97129.31;30001;982;1885;-63
2022/09/23 00:23:55;;;;;;;;;;;;;;;8.66;68.73;97135.25;30001;982;1880;-64
2022/09/23 00:24:31;;;;;;;;;;;;;;;8.66;68.71;97132.53;30001;962;1892;-64
2022/09/23 00:25:09;;;;;;;;;;;;;;;8.65;68.81;97139.06;30001;982;1872;-64
2022/09/23 00:25:40;;;;;;;;;;;;;;;8.66;68.89;97137.16;30001;983;1871;-64
2022/09/23 00:26:14;;;;;;;;;;;;;;;8.66;68.70;97137.94;30001;983;1871;-64
2022/09/23 00:26:45;;;;;;;;;;;;;;;8.64;68.60;97137.44;30001;983;1884;-64
2022/09/23 00:27:16;;;;;;;;;;;;;;;8.64;68.72;97133.91;30001;983;1880;-64
2022/09/23 00:27:47;;;;;;;;;;;;;;;8.64;69.05;97132.03;30001;983;1885;-65
2022/09/23 00:28:18;;;;;;;;;;;;;;;8.62;68.84;97131.50;30001;983;1880;-63
2022/09/23 00:28:49;;;;;;;;;;;;;;;8.60;68.96;97133.66;30001;983;1846;-61
2022/09/23 00:29:20;;;;;;;;;;;;;;;8.60;68.97;97130.94;30001;983;1867;-63
2022/09/23 00:29:51;;;;;;;;;;;;;;;8.58;68.97;97133.13;30001;982;1863;-64
2022/09/23 00:30:22;;;;;;;;;;;;;;;8.57;68.99;97136.91;30001;982;1881;-64
2022/09/23 00:30:53;;;;;;;;;;;;;;;8.57;69.16;97130.69;30001;982;1885;-63
2022/09/23 00:31:26;;;;;;;;;;;;;;;8.56;69.33;97139.88;30001;982;1880;-64
2022/09/23 00:31:57;;;;;;;;;;;;;;;8.55;69.26;97138.25;30001;983;1884;-63
2022/09/23 00:32:30;;;;;;;;;;;;;;;8.53;69.17;97130.41;30001;983;1880;-65
2022/09/23 00:33:01;;;;;;;;;;;;;;;8.52;69.31;97128.81;30001;983;1884;-63
2022/09/23 00:33:32;;;;;;;;;;;;;;;8.51;69.40;97132.59;30001;983;1880;-63
2022/09/23 00:34:03;;;;;;;;;;;;;;;8.49;69.23;97129.34;30001;983;1884;-63
2022/09/23 00:34:35;;;;;;;;;;;;;;;8.49;69.37;97133.94;30001;983;1867;-64
2022/09/23 00:35:07;;;;;;;;;;;;;;;8.48;69.66;97130.44;30001;983;1875;-63
2022/09/23 00:35:42;;;;;;;;;;;;;;;8.48;69.45;97138.53;30001;983;1880;-64
2022/09/23 00:36:14;;;;;;;;;;;;;;;8.49;69.53;97132.06;30001;983;1885;-63
2022/09/23 00:36:45;;;;;;;;;;;;;;;8.49;69.50;97129.34;30001;983;1880;-63
2022/09/23 00:37:17;;;;;;;;;;;;;;;8.50;69.48;97133.66;30001;982;1884;-64
2022/09/23 00:37:48;;;;;;;;;;;;;;;8.54;69.21;97132.03;30001;982;1881;-63
2022/09/23 00:38:19;;;;;;;;;;;;;;;8.54;69.14;97132.03;30001;982;1885;-64
2022/09/23 00:38:50;;;;;;;;;;;;;;;8.54;69.07;97132.03;30001;982;1881;-64
2022/09/23 00:39:20;;;;;;;;;;;;;;;8.54;69.33;97120.41;30001;982;1885;-64
2022/09/23 00:39:51;;;;;;;;;;;;;;;8.52;69.32;97128.81;30001;983;1867;-65
2022/09/23 00:40:22;;;;;;;;;;;;;;;8.51;69.32;97126.38;30001;970;1897;-64
2022/09/23 00:40:53;;;;;;;;;;;;;;;8.51;69.41;97131.78;30001;983;1880;-62
2022/09/23 00:41:24;;;;;;;;;;;;;;;8.49;69.45;97129.34;30001;983;1884;-64
2022/09/23 00:41:55;;;;;;;;;;;;;;;8.49;69.61;97133.94;30001;983;1880;-65
2022/09/23 00:42:25;;;;;;;;;;;;;;;8.49;69.61;97129.34;30001;983;1884;-65
2022/09/23 00:42:56;;;;;;;;;;;;;;;8.49;69.48;97134.75;30001;983;1880;-66
2022/09/23 00:43:37;;;;;;;;;;;;;;;8.50;69.43;97136.38;30001;983;1885;-64
2022/09/23 00:44:26;;;;;;;;;;;;;;;8.52;69.37;97131.50;30001;983;1880;-65
2022/09/23 00:45:00;;;;;;;;;;;;;;;8.49;69.17;97129.34;30001;982;1863;-64
2022/09/23 00:45:31;;;;;;;;;;;;;;;8.50;69.33;97136.38;30001;982;1872;-65
2022/09/23 00:46:02;;;;;;;;;;;;;;;8.49;69.48;97126.63;30001;982;1885;-65
2022/09/23 00:46:42;;;;;;;;;;;;;;;8.50;69.54;97130.97;30001;982;1881;-63
2022/09/23 00:47:15;;;;;;;;;;;;;;;8.49;69.45;97123.94;30001;983;1884;-64
2022/09/23 00:47:53;;;;;;;;;;;;;;;8.51;69.43;97131.78;30001;983;1880;-63
2022/09/23 00:48:24;;;;;;;;;;;;;;;8.51;69.41;97127.19;30001;983;1884;-64
2022/09/23 00:48:58;;;;;;;;;;;;;;;8.52;69.23;97123.38;30001;983;1880;-64
2022/09/23 00:49:29;;;;;;;;;;;;;;;8.52;69.52;97117.97;30001;983;1884;-64
2022/09/23 00:50:12;;;;;;;;;;;;;;;8.54;69.43;97121.22;30001;983;1867;-64
2022/09/23 00:50:44;;;;;;;;;;;;;;;8.54;69.32;97115.81;30001;983;1876;-64
2022/09/23 00:51:18;;;;;;;;;;;;;;;8.52;69.25;97117.97;30001;983;1880;-65
2022/09/23 00:51:53;;;;;;;;;;;;;;;8.51;69.35;97118.25;30001;983;1885;-64
2022/09/23 00:52:24;;;;;;;;;;;;;;;8.50;69.48;97120.16;30001;982;1880;-64
2022/09/23 00:52:57;;;;;;;;;;;;;;;8.50;69.61;97125.56;30001;982;1885;-64
2022/09/23 00:53:28;;;;;;;;;;;;;;;8.49;69.51;97123.94;30001;982;1881;-65
2022/09/23 00:53:59;;;;;;;;;;;;;;;8.48;69.71;97122.31;30001;982;1885;-63
2022/09/23 00:54:31;;;;;;;;;;;;;;;8.46;69.81;97119.06;30001;982;1881;-64
2022/09/23 00:55:05;;;;;;;;;;;;;;;8.46;69.83;97119.06;30001;983;1871;-64
2022/09/23 00:55:39;;;;;;;;;;;;;;;8.47;69.77;97120.69;30001;983;1871;-64
2022/09/23 00:56:11;;;;;;;;;;;;;;;8.47;69.83;97120.69;30001;983;1884;-64
2022/09/23 00:56:42;;;;;;;;;;;;;;;8.45;70.08;97114.75;30001;983;1880;-64
2022/09/23 00:57:19;;;;;;;;;;;;;;;8.42;70.01;97120.69;30001;983;1885;-65
2022/09/23 00:57:53;;;;;;;;;;;;;;;8.41;70.06;97121.78;30001;983;1880;-64
2022/09/23 00:58:25;;;;;;;;;;;;;;;8.39;70.09;97118.53;30001;983;1885;-65
2022/09/23 00:58:56;;;;;;;;;;;;;;;8.40;70.44;97118.25;30001;983;1881;-66
2022/09/23 00:59:28;;;;;;;;;;;;;;;8.40;70.12;97114.75;30001;983;1884;-63
2022/09/23 00:59:58;;;;;;;;;;;;;;;8.38;70.41;97116.91;30001;982;1880;-66
2022/09/23 01:00:29;;;;;;;;;;;;;;;8.35;70.53;97112.87;30001;982;1872;-64
2022/09/23 01:01:01;;;;;;;;;;;;;;;8.36;70.43;97117.19;30001;982;1872;-64
2022/09/23 01:01:32;;;;;;;;;;;;;;;8.37;70.64;97115.28;30001;982;1885;-64
2022/09/23 01:02:03;;;;;;;;;;;;;;;8.36;70.59;97116.38;30001;982;1881;-65
2022/09/23 01:02:36;;;;;;;;;;;;;;;8.34;70.65;97116.66;30001;983;1871;-64
2022/09/23 01:03:08;;;;;;;;;;;;;;;8.34;70.58;97116.66;30001;983;1871;-65
2022/09/23 01:03:41;;;;;;;;;;;;;;;8.35;70.94;97117.47;30001;983;1884;-63
2022/09/23 01:04:15;;;;;;;;;;;;;;;8.37;70.60;97110.69;30001;983;1880;-63
2022/09/23 01:04:47;;;;;;;;;;;;;;;8.40;70.65;97109.34;30001;983;1884;-64
2022/09/23 01:05:18;;;;;;;;;;;;;;;8.43;70.55;97114.22;30001;983;1880;-64
2022/09/23 01:05:49;;;;;;;;;;;;;;;8.42;70.67;97106.38;30001;983;1885;-64
2022/09/23 01:06:21;;;;;;;;;;;;;;;8.42;70.43;97117.19;30001;982;1881;-64
2022/09/23 01:06:52;;;;;;;;;;;;;;;8.39;70.72;97113.13;30001;982;1885;-63
2022/09/23 01:07:22;;;;;;;;;;;;;;;8.40;70.53;97112.03;30001;982;1881;-64
2022/09/23 01:07:56;;;;;;;;;;;;;;;8.38;70.57;97117.72;30001;982;1872;-64
2022/09/23 01:08:27;;;;;;;;;;;;;;;8.38;70.67;97109.63;30001;982;1872;-63
2022/09/23 01:08:58;;;;;;;;;;;;;;;8.35;70.69;97114.75;30001;982;1872;-65
2022/09/23 01:09:29;;;;;;;;;;;;;;;8.33;70.79;97111.50;30001;982;1872;-64
2022/09/23 01:10:01;;;;;;;;;;;;;;;8.33;70.98;97111.50;30001;983;1884;-65
2022/09/23 01:10:42;;;;;;;;;;;;;;;8.31;71.03;97116.38;30001;983;1880;-64
2022/09/23 01:11:36;;;;;;;;;;;;;;;8.29;71.05;97118.53;30001;983;1884;-64
2022/09/23 01:12:33;;;;;;;;;;;;;;;8.24;70.97;97111.25;30001;983;1876;-64
2022/09/23 01:13:22;;;;;;;;;;;;;;;8.24;71.28;97113.13;30001;983;1880;-64
2022/09/23 01:14:05;;;;;;;;;;;;;;;8.26;71.54;97109.09;30001;982;1872;-64
2022/09/23 01:15:06;;;;;;;;;;;;;;;8.27;71.20;97113.41;30001;982;1871;-59
2022/09/23 01:15:43;;;;;;;;;;;;;;;8.23;71.46;97111.50;30001;982;1872;-65
2022/09/23 01:16:34;;;;;;;;;;;;;;;8.20;71.46;97110.16;30001;982;1885;-64
2022/09/23 01:17:23;;;;;;;;;;;;;;;8.22;71.52;97112.59;30001;982;1881;-65
2022/09/23 01:18:12;;;;;;;;;;;;;;;8.21;71.63;97110.97;30001;983;1875;-65
2022/09/23 01:18:56;;;;;;;;;;;;;;;8.21;71.85;97110.97;30001;983;1875;-59
2022/09/23 01:19:48;;;;;;;;;;;;;;;8.21;71.78;97113.69;30001;983;1884;-63
2022/09/23 01:20:34;;;;;;;;;;;;;;;8.20;71.68;97112.87;30001;985;1855;-64
2022/09/23 01:21:31;;;;;;;;;;;;;;;8.21;71.79;97108.28;30001;983;1867;-64
2022/09/23 01:22:09;;;;;;;;;;;;;;;8.18;71.77;97114.22;30001;982;1858;-64
2022/09/23 01:22:52;;;;;;;;;;;;;;;8.22;71.75;97105.31;30001;982;1872;-59
2022/09/23 01:23:41;;;;;;;;;;;;;;;8.22;71.59;97101.78;30001;982;1876;-64
2022/09/23 01:24:32;;;;;;;;;;;;;;;8.22;71.66;97101.78;30001;982;1872;-63
2022/09/23 01:25:20;;;;;;;;;;;;;;;8.23;71.64;97104.22;30001;983;1871;-64
2022/09/23 01:26:07;;;;;;;;;;;;;;;8.24;71.54;97100.44;30001;983;1880;-64
2022/09/23 01:26:58;;;;;;;;;;;;;;;8.24;71.42;97105.03;30001;983;1876;-60
2022/09/23 01:27:40;;;;;;;;;;;;;;;8.20;71.67;97107.47;30001;983;1862;-64
2022/09/23 01:28:29;;;;;;;;;;;;;;;8.18;71.64;97100.72;30001;983;1867;-65
2022/09/23 01:29:23;;;;;;;;;;;;;;;8.18;71.81;97106.13;30001;982;1872;-64
2022/09/23 01:30:05;;;;;;;;;;;;;;;8.20;71.73;97106.66;30001;982;1876;-64
2022/09/23 01:30:40;;;;;;;;;;;;;;;8.22;71.77;97104.50;30001;982;1881;-63
2022/09/23 01:31:18;;;;;;;;;;;;;;;8.20;71.65;97103.94;30001;982;1876;-63
2022/09/23 01:32:24;;;;;;;;;;;;;;;8.19;71.68;97102.31;30001;982;1881;-60
2022/09/23 01:33:08;;;;;;;;;;;;;;;8.17;71.73;97104.50;30001;983;1858;-64
2022/09/23 01:33:46;;;;;;;;;;;;;;;8.18;71.83;97098.00;30001;983;1871;-63
2022/09/23 01:34:43;;;;;;;;;;;;;;;8.21;71.64;97105.56;30001;983;1876;-63
2022/09/23 01:35:38;;;;;;;;;;;;;;;8.21;71.78;97100.16;30001;983;1876;-64
2022/09/23 01:36:24;;;;;;;;;;;;;;;8.18;71.79;97092.59;30001;983;1876;-63
2022/09/23 01:37:08;;;;;;;;;;;;;;;8.16;71.94;97097.47;30001;982;1880;-64
2022/09/23 01:37:49;;;;;;;;;;;;;;;8.13;72.01;97098.00;30001;982;1876;-64
2022/09/23 01:38:31;;;;;;;;;;;;;;;8.13;72.13;97092.59;30001;982;1867;-64
2022/09/23 01:39:07;;;;;;;;;;;;;;;8.14;72.09;97094.22;30001;983;1854;-65
2022/09/23 01:39:44;;;;;;;;;;;;;;;8.14;72.12;97096.94;30001;983;1880;-64
2022/09/23 01:40:22;;;;;;;;;;;;;;;8.13;72.02;97098.00;30001;983;1876;-64
2022/09/23 01:41:08;;;;;;;;;;;;;;;8.12;72.20;97097.19;30001;983;1880;-64
2022/09/23 01:41:47;;;;;;;;;;;;;;;8.11;72.10;97089.34;30001;983;1876;-63
2022/09/23 01:42:25;;;;;;;;;;;;;;;8.13;72.20;97098.00;30001;983;1880;-64
2022/09/23 01:43:01;;;;;;;;;;;;;;;8.13;71.96;97089.91;30001;983;1876;-63
2022/09/23 01:43:38;;;;;;;;;;;;;;;8.08;72.23;97094.22;30001;983;1880;-64
2022/09/23 01:44:17;;;;;;;;;;;;;;;8.06;72.16;97088.28;30001;982;1863;-64
2022/09/23 01:45:02;;;;;;;;;;;;;;;8.10;72.20;97087.75;30001;982;1872;-64
2022/09/23 01:45:35;;;;;;;;;;;;;;;8.10;72.12;97085.03;30001;982;1876;-64
2022/09/23 01:46:10;;;;;;;;;;;;;;;8.10;72.31;97093.12;30001;964;1899;-64
2022/09/23 01:46:47;;;;;;;;;;;;;;;8.12;72.10;97085.56;30001;983;1875;-64
2022/09/23 01:47:31;;;;;;;;;;;;;;;8.12;72.10;97088.28;30001;983;1880;-63
2022/09/23 01:48:12;;;;;;;;;;;;;;;8.13;72.18;97087.19;30001;983;1876;-63
2022/09/23 01:48:52;;;;;;;;;;;;;;;8.11;72.12;97087.47;30001;983;1880;-64
2022/09/23 01:49:32;;;;;;;;;;;;;;;8.12;72.13;97085.56;30001;983;1863;-63
2022/09/23 01:51:08;;;;;;;;;;;;;;;8.15;71.92;97087.72;30001;964;1799;-65
2022/09/23 01:51:42;;;;;;;;;;;;;;;8.16;72.09;97087.47;30001;982;1881;-60
2022/09/23 01:52:46;;;;;;;;;;;;;;;8.15;71.95;97082.31;30001;982;1857;-62
2022/09/23 01:53:21;;;;;;;;;;;;;;;8.14;72.03;97088.81;30001;982;1877;-63
2022/09/23 01:54:07;;;;;;;;;;;;;;;8.12;72.13;97080.97;30001;982;1876;-63
2022/09/23 01:54:42;;;;;;;;;;;;;;;8.12;72.09;97082.87;30001;983;1867;-60
2022/09/23 01:55:20;;;;;;;;;;;;;;;8.14;72.08;97088.81;30001;983;1867;-63
2022/09/23 01:55:55;;;;;;;;;;;;;;;8.15;72.16;97090.44;30001;983;1881;-64
2022/09/23 01:56:33;;;;;;;;;;;;;;;8.16;71.88;97081.25;30001;983;1876;-63
2022/09/23 01:57:07;;;;;;;;;;;;;;;8.15;71.80;97085.84;30001;983;1880;-64
2022/09/23 01:57:42;;;;;;;;;;;;;;;8.12;71.77;97085.56;30001;983;1876;-65
2022/09/23 01:58:15;;;;;;;;;;;;;;;8.12;72.08;97080.97;30001;983;1880;-63
2022/09/23 01:58:52;;;;;;;;;;;;;;;8.15;72.00;97085.84;30001;965;1894;-64
2022/09/23 01:59:34;;;;;;;;;;;;;;;8.17;72.06;97078.28;30001;982;1881;-64
2022/09/23 02:00:09;;;;;;;;;;;;;;;8.19;71.71;97083.41;30001;982;1863;-64
2022/09/23 02:00:45;;;;;;;;;;;;;;;8.17;71.80;97085.56;30001;982;1872;-63
2022/09/23 02:01:22;;;;;;;;;;;;;;;8.15;71.84;97085.84;30001;982;1876;-64
2022/09/23 02:02:19;;;;;;;;;;;;;;;8.16;72.02;97089.34;30001;983;1880;-62
2022/09/23 02:03:03;;;;;;;;;;;;;;;8.14;72.08;97078.00;30001;983;1872;-63
2022/09/23 02:03:44;;;;;;;;;;;;;;;8.15;72.21;97085.03;30001;983;1880;-64
2022/09/23 02:04:21;;;;;;;;;;;;;;;8.16;71.96;97082.06;30001;983;1863;-65
2022/09/23 02:05:16;;;;;;;;;;;;;;;8.12;72.09;97078.28;30001;983;1872;-64
2022/09/23 02:05:49;;;;;;;;;;;;;;;8.11;72.11;97083.94;30001;983;1876;-64
2022/09/23 02:06:22;;;;;;;;;;;;;;;8.08;72.11;97078.00;30001;983;1881;-65
2022/09/23 02:06:56;;;;;;;;;;;;;;;8.10;72.04;97079.63;30001;982;1876;-63
2022/09/23 02:07:53;;;;;;;;;;;;;;;8.08;72.16;97080.72;30001;982;1881;-63
2022/09/23 02:08:27;;;;;;;;;;;;;;;8.07;72.31;97079.09;30001;982;1877;-64
2022/09/23 02:09:01;;;;;;;;;;;;;;;8.08;72.30;97080.72;30001;982;1881;-58
2022/09/23 02:09:36;;;;;;;;;;;;;;;8.07;72.36;97073.69;30001;983;1863;-64
2022/09/23 02:10:32;;;;;;;;;;;;;;;8.08;72.55;97074.50;30001;983;1871;-65
2022/09/23 02:11:08;;;;;;;;;;;;;;;8.08;72.22;97075.31;30001;983;1871;-63
2022/09/23 02:11:41;;;;;;;;;;;;;;;8.10;72.37;97072.34;30001;983;1880;-63
2022/09/23 02:12:19;;;;;;;;;;;;;;;8.13;72.24;97073.69;30001;983;1876;-63
2022/09/23 02:12:53;;;;;;;;;;;;;;;8.12;72.27;97080.16;30001;983;1881;-64
2022/09/23 02:13:28;;;;;;;;;;;;;;;8.10;72.32;97071.53;30001;983;1876;-61
2022/09/23 02:14:14;;;;;;;;;;;;;;;8.06;72.17;97066.66;30001;982;1881;-63
2022/09/23 02:14:49;;;;;;;;;;;;;;;8.03;72.30;97072.59;30001;982;1863;-59
2022/09/23 02:15:23;;;;;;;;;;;;;;;8.00;72.70;97073.16;30001;982;1872;-63
2022/09/23 02:15:57;;;;;;;;;;;;;;;8.02;72.66;97080.97;30001;982;1876;-63
2022/09/23 02:16:46;;;;;;;;;;;;;;;8.02;72.82;97080.97;30001;982;1881;-64
2022/09/23 02:17:23;;;;;;;;;;;;;;;8.02;72.78;97068.28;30001;983;1876;-59
2022/09/23 02:18:00;;;;;;;;;;;;;;;8.00;72.78;97067.75;30001;983;1880;-64
2022/09/23 02:18:37;;;;;;;;;;;;;;;8.04;72.54;97074.22;30001;983;1863;-63
2022/09/23 02:19:10;;;;;;;;;;;;;;;8.06;72.71;97077.47;30001;983;1872;-63
2022/09/23 02:19:53;;;;;;;;;;;;;;;8.04;72.56;97068.81;30001;983;1876;-63
2022/09/23 02:20:28;;;;;;;;;;;;;;;8.05;72.44;97070.44;30001;983;1867;-61
2022/09/23 02:21:03;;;;;;;;;;;;;;;8.07;72.53;97072.88;30001;982;1854;-64
2022/09/23 02:21:37;;;;;;;;;;;;;;;8.03;72.60;97072.59;30001;982;1881;-64
2022/09/23 02:22:11;;;;;;;;;;;;;;;8.02;72.70;97070.97;30001;982;1877;-65
2022/09/23 02:22:50;;;;;;;;;;;;;;;8.01;72.78;97072.06;30001;982;1868;-64
2022/09/23 02:23:26;;;;;;;;;;;;;;;7.99;72.57;97066.13;30001;982;1854;-64
2022/09/23 02:24:02;;;;;;;;;;;;;;;7.98;72.74;97063.69;30001;982;1881;-63
2022/09/23 02:24:35;;;;;;;;;;;;;;;8.00;72.89;97066.94;30001;983;1875;-64
2022/09/23 02:25:07;;;;;;;;;;;;;;;7.99;72.77;97071.53;30001;983;1880;-64
2022/09/23 02:25:57;;;;;;;;;;;;;;;7.96;72.83;97076.69;30001;983;1876;-65
2022/09/23 02:26:37;;;;;;;;;;;;;;;7.95;72.98;97069.66;30001;983;1880;-65
2022/09/23 02:27:17;;;;;;;;;;;;;;;7.94;73.04;97068.84;30001;983;1876;-64
2022/09/23 02:27:56;;;;;;;;;;;;;;;7.95;73.23;97064.25;30001;983;1867;-63
2022/09/23 02:28:33;;;;;;;;;;;;;;;7.93;72.93;97072.63;30002;983;1848;-63
2022/09/23 02:29:17;;;;;;;;;;;;;;;7.91;73.10;97074.78;30002;982;1881;-65
2022/09/23 02:29:53;;;;;;;;;;;;;;;7.92;73.23;97075.59;30002;982;1876;-65
2022/09/23 02:30:26;;;;;;;;;;;;;;;7.94;73.26;97074.25;30002;982;1881;-63
2022/09/23 02:31:15;;;;;;;;;;;;;;;7.97;73.29;97072.91;30002;982;1864;-65
2022/09/23 02:31:54;;;;;;;;;;;;;;;8.00;73.14;97070.44;30002;982;1872;-63
2022/09/23 02:32:48;;;;;;;;;;;;;;;7.99;72.78;97063.41;30002;983;1876;-64
2022/09/23 02:33:32;;;;;;;;;;;;;;;7.96;72.96;97071.28;30002;983;1876;-65
2022/09/23 02:34:23;;;;;;;;;;;;;;;7.98;72.94;97072.59;30002;983;1863;-63
2022/09/23 02:35:14;;;;;;;;;;;;;;;7.96;73.05;97061.28;30002;983;1872;-64
2022/09/23 02:35:52;;;;;;;;;;;;;;;7.94;72.78;97062.62;30002;983;1872;-65
2022/09/23 02:36:28;;;;;;;;;;;;;;;7.94;73.04;97074.25;30002;982;1881;-64
2022/09/23 02:37:05;;;;;;;;;;;;;;;7.95;72.88;97073.19;30002;982;1876;-60
2022/09/23 02:37:58;;;;;;;;;;;;;;;7.96;73.07;97061.28;30002;982;1881;-64
2022/09/23 02:38:36;;;;;;;;;;;;;;;7.95;72.96;97064.25;30002;982;1872;-63
2022/09/23 02:39:11;;;;;;;;;;;;;;;7.93;73.09;97067.22;30002;983;1867;-64
2022/09/23 02:39:54;;;;;;;;;;;;;;;7.90;73.07;97067.78;30002;983;1867;-65
2022/09/23 02:40:36;;;;;;;;;;;;;;;7.89;73.22;97065.34;30002;983;1880;-64
2022/09/23 02:41:10;;;;;;;;;;;;;;;7.90;73.27;97067.78;30002;983;1876;-65
2022/09/23 02:41:54;;;;;;;;;;;;;;;7.88;73.42;97069.94;30002;983;1880;-64
2022/09/23 02:42:32;;;;;;;;;;;;;;;7.86;73.48;97066.69;30002;983;1876;-63
2022/09/23 02:43:21;;;;;;;;;;;;;;;7.86;73.45;97066.69;30002;983;1880;-64
2022/09/23 02:44:13;;;;;;;;;;;;;;;7.86;73.49;97071.28;30002;982;1868;-64
2022/09/23 02:44:43;;;;;;;;;;;;;;;7.85;73.55;97062.38;30002;982;1868;-64
2022/09/23 02:45:14;;;;;;;;;;;;;;;7.83;73.52;97064.53;30002;982;1839;-65
2022/09/23 02:45:46;;;;;;;;;;;;;;;7.82;73.71;97064.78;30002;982;1881;-64
2022/09/23 02:46:17;;;;;;;;;;;;;;;7.82;73.81;97065.59;30002;983;1862;-62
2022/09/23 02:46:51;;;;;;;;;;;;;;;7.83;73.89;97067.22;30002;983;1871;-64
2022/09/23 02:47:23;;;;;;;;;;;;;;;7.84;73.74;97068.03;30002;983;1875;-64
2022/09/23 02:48:01;;;;;;;;;;;;;;;7.82;73.66;97065.59;30002;983;1880;-64
2022/09/23 02:48:35;;;;;;;;;;;;;;;7.82;73.72;97071.00;30002;983;1863;-63
2022/09/23 02:49:18;;;;;;;;;;;;;;;7.81;74.01;97069.38;30002;983;1872;-65
2022/09/23 02:49:49;;;;;;;;;;;;;;;7.84;74.00;97068.84;30002;983;1876;-65
2022/09/23 02:50:21;;;;;;;;;;;;;;;7.84;74.02;97063.44;30002;983;1880;-64
2022/09/23 02:50:52;;;;;;;;;;;;;;;7.80;74.15;97062.38;30002;983;1876;-63
2022/09/23 02:51:27;;;;;;;;;;;;;;;7.78;74.12;97059.13;30002;982;1880;-65
2022/09/23 02:52:03;;;;;;;;;;;;;;;7.79;74.35;97063.44;30002;982;1876;-60
2022/09/23 02:52:36;;;;;;;;;;;;;;;7.79;74.21;97059.94;30002;982;1881;-64
2022/09/23 02:53:08;;;;;;;;;;;;;;;7.79;74.12;97060.75;30002;982;1863;-64
2022/09/23 02:53:39;;;;;;;;;;;;;;;7.77;74.35;97054.78;30002;982;1872;-64
2022/09/23 02:54:18;;;;;;;;;;;;;;;7.76;74.10;97055.06;30002;983;1876;-64
2022/09/23 02:54:49;;;;;;;;;;;;;;;7.75;74.25;97059.66;30002;983;1880;-64
2022/09/23 02:55:22;;;;;;;;;;;;;;;7.73;74.65;97056.41;30002;983;1876;-63
2022/09/23 02:55:53;;;;;;;;;;;;;;;7.73;74.54;97061.81;30002;983;1880;-64
2022/09/23 02:56:24;;;;;;;;;;;;;;;7.71;74.74;97059.37;30002;983;1876;-64
2022/09/23 02:56:56;;;;;;;;;;;;;;;7.70;74.54;97056.94;30002;983;1880;-64
2022/09/23 02:57:27;;;;;;;;;;;;;;;7.69;74.51;97052.63;30002;983;1876;-64
2022/09/23 02:58:02;;;;;;;;;;;;;;;7.68;74.86;97059.91;30002;983;1880;-64
2022/09/23 02:58:33;;;;;;;;;;;;;;;7.65;74.60;97049.66;30002;983;1863;-66
2022/09/23 02:59:06;;;;;;;;;;;;;;;7.65;74.92;97054.25;30002;982;1872;-64
2022/09/23 02:59:37;;;;;;;;;;;;;;;7.65;74.94;97056.94;30002;982;1877;-64
2022/09/23 03:00:11;;;;;;;;;;;;;;;7.66;75.20;97053.16;30002;982;1881;-65
2022/09/23 03:01:10;;;;;;;;;;;;;;;7.66;74.90;97055.88;30002;982;1876;-63
2022/09/23 03:02:00;;;;;;;;;;;;;;;7.65;75.14;97048.84;30002;983;1876;-66
2022/09/23 03:03:06;;;;;;;;;;;;;;;7.65;75.20;97048.84;30002;983;1867;-63
2022/09/23 03:03:45;;;;;;;;;;;;;;;7.68;74.81;97054.53;30002;983;1863;-65
2022/09/23 03:04:34;;;;;;;;;;;;;;;7.71;74.84;97047.78;30002;983;1867;-64
2022/09/23 03:05:26;;;;;;;;;;;;;;;7.69;74.95;97050.75;30002;983;1881;-63
2022/09/23 03:05:57;;;;;;;;;;;;;;;7.67;74.89;97047.50;30002;983;1872;-64
2022/09/23 03:06:31;;;;;;;;;;;;;;;7.67;74.73;97046.69;30002;982;1881;-64
2022/09/23 03:07:12;;;;;;;;;;;;;;;7.68;75.01;97046.41;30002;982;1876;-65
2022/09/23 03:08:03;;;;;;;;;;;;;;;7.67;74.69;97052.91;30002;982;1868;-64
2022/09/23 03:08:49;;;;;;;;;;;;;;;7.71;74.52;97047.78;30002;982;1863;-65
2022/09/23 03:09:52;;;;;;;;;;;;;;;7.69;74.75;97050.75;30002;983;1867;-64
2022/09/23 03:10:34;;;;;;;;;;;;;;;7.67;74.54;97038.59;30002;983;1863;-63
2022/09/23 03:11:10;;;;;;;;;;;;;;;7.69;74.40;97039.13;30002;983;1880;-63
2022/09/23 03:11:46;;;;;;;;;;;;;;;7.67;74.78;97042.09;30002;983;1876;-64
2022/09/23 03:12:39;;;;;;;;;;;;;;;7.64;74.69;97047.22;30002;983;1881;-64
2022/09/23 03:13:24;;;;;;;;;;;;;;;7.62;74.56;97044.00;30002;982;1859;-64
2022/09/23 03:14:16;;;;;;;;;;;;;;;7.61;74.80;97042.41;30002;982;1872;-65
2022/09/23 03:14:59;;;;;;;;;;;;;;;7.62;74.50;97044.78;30002;982;1868;-64
2022/09/23 03:15:36;;;;;;;;;;;;;;;7.63;74.76;97051.00;30002;982;1881;-63
2022/09/23 03:16:15;;;;;;;;;;;;;;;7.64;74.66;97044.53;30002;982;1863;-63
2022/09/23 03:16:49;;;;;;;;;;;;;;;7.63;74.76;97046.41;30002;983;1871;-59
2022/09/23 03:17:30;;;;;;;;;;;;;;;7.61;74.65;97047.78;30002;983;1876;-64
2022/09/23 03:18:14;;;;;;;;;;;;;;;7.58;74.39;97043.75;30002;983;1880;-64
2022/09/23 03:19:03;;;;;;;;;;;;;;;7.55;74.68;97046.97;30002;983;1863;-64
2022/09/23 03:19:42;;;;;;;;;;;;;;;7.55;75.02;97049.69;30002;983;1863;-65
2022/09/23 03:20:16;;;;;;;;;;;;;;;7.55;74.98;97043.47;30001;983;1876;-65
2022/09/23 03:20:54;;;;;;;;;;;;;;;7.55;75.10;97048.88;30001;982;1880;-65
2022/09/23 03:21:31;;;;;;;;;;;;;;;7.55;74.76;97052.37;30001;982;1876;-64
2022/09/23 03:22:07;;;;;;;;;;;;;;;7.55;75.09;97043.47;30001;982;1881;-64
2022/09/23 03:22:46;;;;;;;;;;;;;;;7.55;74.78;97052.37;30001;982;1877;-64